ADDS METAR Data INFO
IDs: Format: Raw Decoded Include TAF

Data at: 0404 UTC 19 Jul 2018

KPRO 190355Z AUTO 13005KT 10SM SCT080 BKN100 BKN120 23/21 A2994 RMK AO2 T02260206 403000157
KPRO 190335Z AUTO 12003KT 10SM OVC100 23/21 A2995 RMK AO2 T02280210
KPRO 190315Z AUTO 14003KT 10SM SCT110 23/21 A2995 RMK AO2 T02260210
KPRO 190255Z AUTO 15005KT 10SM BKN100 23/21 A2994 RMK AO2 T02300212
KPRO 190235Z AUTO 12004KT 10SM SCT070 OVC120 24/20 A2995 RMK AO2 T02390204
KPRO 190215Z AUTO 11004KT 10SM SCT060 BKN120 25/20 A2996 RMK AO2 T02460197
KPRO 190155Z AUTO 12005KT 10SM SCT060 SCT065 BKN120 25/20 A2994 RMK AO2 T02480198
KPRO 190135Z AUTO 11005KT 10SM OVC060 26/20 A2995 RMK AO2 T02550197
KPRO 190115Z AUTO 11004KT 10SM OVC060 26/20 A2996 RMK AO2 T02600200
KPRO 190055Z AUTO 10004KT 10SM OVC060 27/20 A2996 RMK AO2 T02650201
KPRO 190035Z AUTO 10004KT 10SM BKN060 27/20 A2996 RMK AO2 T02700197
KPRO 190015Z AUTO 12003KT 10SM SCT060 SCT120 27/19 A2996 RMK AO2 T02710192
KPRO 182355Z AUTO 12003KT 10SM SCT060 SCT120 27/19 A2996 RMK AO2 T02720192 10300 20272
KPRO 182335Z AUTO 12006KT 10SM BKN060 28/19 A2996 RMK AO2 T02770191
KPRO 182315Z AUTO 14005KT 10SM BKN060 28/19 A2997 RMK AO2 T02760190
KPRO 182255Z AUTO 13005KT 10SM SCT060 28/19 A2997 RMK AO2 T02790188
KPRO 182235Z AUTO 12006KT 10SM SCT055 28/18 A2997 RMK AO2 T02830178
KPRO 182215Z AUTO 13007KT 10SM SCT055 29/18 A2998 RMK AO2 T02880175
KPRO 182155Z AUTO 13006KT 10SM SCT055 SCT065 29/17 A2998 RMK AO2 T02880174
KPRO 182135Z AUTO 13007KT 10SM CLR 29/16 A2999 RMK AO2 T02940157
KPRO 182115Z AUTO 15010KT 10SM CLR 30/15 A2999 RMK AO2 T02970149
KPRO 182055Z AUTO 14009G15KT 10SM SCT055 30/16 A3000 RMK AO2 T02980158
KPRO 182035Z AUTO 15009KT 10SM SCT055 29/17 A3001 RMK AO2 T02900165
KPRO 182015Z AUTO 14010KT 10SM SCT055 30/16 A3001 RMK AO2 T02960162
KPRO 181955Z AUTO 15010KT 10SM SCT050 SCT060 30/17 A3002 RMK AO2 T02960168
KPRO 181935Z AUTO 15009KT 10SM SCT050 29/18 A3002 RMK AO2 T02920177
KPRO 181915Z AUTO 13009KT 10SM SCT050 29/17 A3003 RMK AO2 T02850168
KPRO 181855Z AUTO 12006KT 10SM CLR 29/18 A3003 RMK AO2 T02920179
KPRO 181835Z AUTO 12009KT 10SM CLR 29/18 A3004 RMK AO2 T02900177
KPRO 181815Z AUTO 14010G14KT 10SM CLR 29/19 A3004 RMK AO2 T02900188
KPRO 181755Z AUTO 12008KT 10SM CLR 28/19 A3005 RMK AO2 T02830189 10286 20182
KPRO 181735Z AUTO 15006KT 10SM CLR 28/19 A3006 RMK AO2 T02750185
KPRO 181715Z AUTO 17009KT 120V180 10SM CLR 28/19 A3006 RMK AO2 T02840186
KPRO 181655Z AUTO 13009KT 10SM CLR 28/19 A3006 RMK AO2 T02790189
KPRO 181635Z AUTO 13009KT 10SM CLR 28/19 A3006 RMK AO2 T02800190
KPRO 181615Z AUTO 14008KT 10SM CLR 28/20 A3006 RMK AO2 T02760199
KPRO 181555Z AUTO 12009KT 10SM CLR 27/20 A3007 RMK AO2 T02700198
KPRO 181535Z AUTO 12006KT 10SM CLR 26/20 A3008 RMK AO2 T02640201
KPRO 181435Z AUTO 14005KT 10SM SCT080 25/21 A3008 RMK AO2 T02450207
KPRO 181415Z AUTO 16003KT 10SM OVC080 24/21 A3010 RMK AO2 T02370208
KPRO 181355Z AUTO 10003KT 10SM BKN080 23/21 A3009 RMK AO2 T02300205
KPRO 181335Z AUTO 09004KT 10SM SCT075 22/20 A3009 RMK AO2 T02240202
KPRO 181315Z AUTO 09003KT 7SM CLR 21/20 A3009 RMK AO2 T02100197
KPRO 181255Z AUTO 00000KT 7SM CLR 20/19 A3009 RMK AO2 T01990191
KPRO 181235Z AUTO 00000KT 10SM SCT075 20/19 A3010 RMK AO2 T01950187
KPRO 181215Z AUTO 00000KT 10SM SCT075 19/19 A3010 RMK AO2 T01900185
KPRO 181155Z AUTO 00000KT 10SM BKN075 18/18 A3009 RMK AO2 T01800179 10182 20157
KPRO 181135Z AUTO 00000KT 10SM BKN075 18/18 A3009 RMK AO2 T01790176
KPRO 181115Z AUTO 00000KT 10SM CLR 18/17 A3008 RMK AO2 T01750172
KPRO 181055Z AUTO 00000KT 10SM CLR 17/17 A3008 RMK AO2 T01740172
KPRO 181035Z AUTO 00000KT 10SM CLR 17/17 A3008 RMK AO2 T01730173
KPRO 181015Z AUTO 00000KT 10SM BKN070 17/17 A3007 RMK AO2 T01720172
KPRO 180955Z AUTO 03003KT 10SM BKN070 18/18 A3008 RMK AO2 T01750175
KPRO 180935Z AUTO 03003KT 10SM CLR 17/17 A3008 RMK AO2 T01700170
KPRO 180915Z AUTO 00000KT 7SM CLR 16/16 A3009 RMK AO2 T01630163
KPRO 180855Z AUTO 00000KT 1/4SM FG VV002 16/16 A3009 RMK AO2 T01600160
KPRO 180835Z AUTO 00000KT 3/4SM BR VV005 16/16 A3009 RMK AO2 T01610161
KPRO 180815Z AUTO 00000KT 7SM SCT002 17/17 A3009 RMK AO2 T01700170
KPRO 180755Z AUTO 00000KT 1/4SM FG OVC002 16/16 A3009 RMK AO2 T01610161
KPRO 180735Z AUTO 00000KT 1SM BR VV007 17/17 A3009 RMK AO2 T01650165
KPRO 180715Z AUTO 00000KT 2 1/2SM BR CLR 17/17 A3009 RMK AO2 T01690169
KPRO 180655Z AUTO 00000KT 10SM CLR 18/18 A3009 RMK AO2 T01800180
KPRO 180635Z AUTO 00000KT 10SM CLR 18/18 A3009 RMK AO2 T01800180
KPRO 180615Z AUTO 00000KT 10SM CLR 18/18 A3009 RMK AO2 T01760176
KPRO 180555Z AUTO 00000KT 10SM CLR 18/18 A3009 RMK AO2 T01830182 10285 20183
KPRO 180535Z AUTO 00000KT 10SM CLR 19/18 A3009 RMK AO2 T01860184
KPRO 180515Z AUTO 00000KT 10SM CLR 19/18 A3009 RMK AO2 T01900183
KPRO 180455Z AUTO 00000KT 10SM CLR 20/19 A3009 RMK AO2 T01970190
KPRO 180435Z AUTO 00000KT 10SM CLR 19/18 A3009 RMK AO2 T01850181
KPRO 180415Z AUTO 00000KT 10SM CLR 20/18 A3009 RMK AO2 T01950184
KPRO 180355Z AUTO 00000KT 10SM CLR 20/19 A3009 RMK AO2 T02010190 402970163
KPRO 180335Z AUTO 00000KT 10SM CLR 21/19 A3008 RMK AO2 T02120190
KPRO 180315Z AUTO 00000KT 10SM CLR 21/19 A3008 RMK AO2 T02090190
KPRO 180255Z AUTO 00000KT 10SM CLR 21/19 A3008 RMK AO2 T02140194
KPRO 180235Z AUTO 00000KT 10SM CLR 23/20 A3007 RMK AO2 T02250195
KPRO 180215Z AUTO 00000KT 10SM CLR 23/20 A3007 RMK AO2 T02250200
KPRO 180155Z AUTO 00000KT 10SM CLR 24/18 A3007 RMK AO2 T02410180
KPRO 180135Z AUTO 00000KT 10SM CLR 25/18 A3007 RMK AO2 T02460177
KPRO 180115Z AUTO 00000KT 10SM CLR 25/18 A3007 RMK AO2 T02530177
KPRO 180055Z AUTO 00000KT 10SM CLR 26/18 A3007 RMK AO2 T02620178
KPRO 180035Z AUTO 17003KT 10SM CLR 27/16 A3007 RMK AO2 T02690163
KPRO 180015Z AUTO 17005KT 10SM CLR 28/16 A3007 RMK AO2 T02780162
KPRO 172355Z AUTO 00000KT 10SM CLR 29/14 A3008 RMK AO2 T02860144 10297 20274
KPRO 172335Z AUTO 00000KT 10SM CLR 29/15 A3008 RMK AO2 T02870149
KPRO 172315Z AUTO 14003KT 10SM CLR 29/15 A3008 RMK AO2 T02880150
KPRO 172255Z AUTO 00000KT 10SM SCT050 29/15 A3009 RMK AO2 T02870148
KPRO 172235Z AUTO 00000KT 10SM SCT055 29/16 A3009 RMK AO2 T02900158
KPRO 172215Z AUTO 09003KT 10SM CLR 30/14 A3009 RMK AO2 T02960141
KPRO 172155Z AUTO 00000KT 10SM CLR 29/14 A3009 RMK AO2 T02920136
KPRO 172135Z AUTO 14005KT 10SM CLR 30/13 A3010 RMK AO2 T02950134
KPRO 172055Z AUTO 10003KT 10SM CLR 29/13 A3010 RMK AO2 T02930128
KPRO 172035Z AUTO 14003KT 10SM CLR 29/13 A3010 RMK AO2 T02900132
KPRO 172015Z AUTO 17003KT 10SM CLR 29/14 A3011 RMK AO2 T02870135
KPRO 171955Z AUTO 18006KT 10SM CLR 29/13 A3011 RMK AO2 T02860134
KPRO 171935Z AUTO 00000KT 10SM CLR 28/14 A3011 RMK AO2 T02840141
KPRO 171915Z AUTO 01003KT 10SM CLR 29/15 A3011 RMK AO2 T02850149
KPRO 171855Z AUTO 00000KT 10SM CLR 28/15 A3011 RMK AO2 T02840151
KPRO 171835Z AUTO 11004KT 10SM CLR 28/16 A3012 RMK AO2 T02800160
KPRO 171815Z AUTO 10004KT 10SM CLR 28/17 A3013 RMK AO2 T02800165
KPRO 171755Z AUTO 00000KT 10SM CLR 28/16 A3013 RMK AO2 T02760163 10277 20180
KPRO 171735Z AUTO 11005KT 10SM CLR 27/17 A3013 RMK AO2 T02720167
KPRO 171715Z AUTO 13003KT 10SM CLR 27/18 A3013 RMK AO2 T02660176
KPRO 171655Z AUTO 11006KT 10SM CLR 26/18 A3014 RMK AO2 T02600179
KPRO 171635Z AUTO 14005KT 10SM CLR 26/20 A3013 RMK AO2 T02600197
KPRO 171615Z AUTO 16004KT 10SM CLR 26/20 A3013 RMK AO2 T02550196